sensor_id;sensor_type;location;lat;lon;timestamp;P1;durP1;ratioP1;P2;durP2;ratioP2
25419;SDS011;13354;48.174;11.566;2024-03-22T00:01:40;17.30;;;13.65;;
25419;SDS011;13354;48.174;11.566;2024-03-22T00:04:05;21.83;;;14.27;;
25419;SDS011;13354;48.174;11.566;2024-03-22T00:06:31;17.40;;;13.73;;
25419;SDS011;13354;48.174;11.566;2024-03-22T00:08:56;16.00;;;12.98;;
25419;SDS011;13354;48.174;11.566;2024-03-22T00:11:22;18.15;;;12.75;;
25419;SDS011;13354;48.174;11.566;2024-03-22T00:13:47;17.65;;;13.18;;
25419;SDS011;13354;48.174;11.566;2024-03-22T00:16:13;16.92;;;13.50;;
25419;SDS011;13354;48.174;11.566;2024-03-22T00:18:39;18.58;;;13.85;;
25419;SDS011;13354;48.174;11.566;2024-03-22T00:21:05;18.23;;;13.65;;
25419;SDS011;13354;48.174;11.566;2024-03-22T00:23:30;16.98;;;13.10;;
25419;SDS011;13354;48.174;11.566;2024-03-22T00:25:56;18.60;;;13.75;;
25419;SDS011;13354;48.174;11.566;2024-03-22T00:28:21;17.40;;;13.80;;
25419;SDS011;13354;48.174;11.566;2024-03-22T00:30:47;19.00;;;13.75;;
25419;SDS011;13354;48.174;11.566;2024-03-22T00:33:12;19.65;;;14.65;;
25419;SDS011;13354;48.174;11.566;2024-03-22T00:35:38;18.20;;;14.45;;
25419;SDS011;13354;48.174;11.566;2024-03-22T00:38:03;21.35;;;14.00;;
25419;SDS011;13354;48.174;11.566;2024-03-22T00:40:28;18.30;;;13.80;;
25419;SDS011;13354;48.174;11.566;2024-03-22T00:42:54;17.75;;;14.18;;
25419;SDS011;13354;48.174;11.566;2024-03-22T00:45:19;17.77;;;13.18;;
25419;SDS011;13354;48.174;11.566;2024-03-22T00:47:45;18.67;;;14.55;;
25419;SDS011;13354;48.174;11.566;2024-03-22T00:50:10;18.10;;;12.88;;
25419;SDS011;13354;48.174;11.566;2024-03-22T00:52:36;17.13;;;13.68;;
25419;SDS011;13354;48.174;11.566;2024-03-22T00:55:01;19.50;;;14.02;;
25419;SDS011;13354;48.174;11.566;2024-03-22T00:57:26;15.23;;;13.02;;
25419;SDS011;13354;48.174;11.566;2024-03-22T00:59:52;17.75;;;13.80;;
25419;SDS011;13354;48.174;11.566;2024-03-22T01:02:18;17.38;;;12.65;;
25419;SDS011;13354;48.174;11.566;2024-03-22T01:04:43;16.13;;;12.55;;
25419;SDS011;13354;48.174;11.566;2024-03-22T01:07:08;14.93;;;12.48;;
25419;SDS011;13354;48.174;11.566;2024-03-22T01:09:34;16.58;;;13.65;;
25419;SDS011;13354;48.174;11.566;2024-03-22T01:12:00;17.65;;;13.05;;
25419;SDS011;13354;48.174;11.566;2024-03-22T01:14:25;20.20;;;15.27;;
25419;SDS011;13354;48.174;11.566;2024-03-22T01:16:51;17.30;;;13.02;;
25419;SDS011;13354;48.174;11.566;2024-03-22T01:19:16;17.45;;;13.10;;
25419;SDS011;13354;48.174;11.566;2024-03-22T01:21:42;18.90;;;12.88;;
25419;SDS011;13354;48.174;11.566;2024-03-22T01:24:07;16.00;;;13.32;;
25419;SDS011;13354;48.174;11.566;2024-03-22T01:26:32;18.08;;;13.45;;
25419;SDS011;13354;48.174;11.566;2024-03-22T01:28:58;18.25;;;13.48;;
25419;SDS011;13354;48.174;11.566;2024-03-22T01:31:23;17.58;;;13.40;;
25419;SDS011;13354;48.174;11.566;2024-03-22T01:33:49;19.48;;;12.82;;
25419;SDS011;13354;48.174;11.566;2024-03-22T01:36:14;16.17;;;12.18;;
25419;SDS011;13354;48.174;11.566;2024-03-22T01:38:39;17.40;;;13.40;;
25419;SDS011;13354;48.174;11.566;2024-03-22T01:41:05;18.70;;;13.02;;
25419;SDS011;13354;48.174;11.566;2024-03-22T01:43:30;17.20;;;13.38;;
25419;SDS011;13354;48.174;11.566;2024-03-22T01:45:56;15.75;;;12.90;;
25419;SDS011;13354;48.174;11.566;2024-03-22T01:48:21;14.85;;;12.10;;
25419;SDS011;13354;48.174;11.566;2024-03-22T01:50:46;16.98;;;12.52;;
25419;SDS011;13354;48.174;11.566;2024-03-22T01:53:12;16.75;;;13.05;;
25419;SDS011;13354;48.174;11.566;2024-03-22T01:55:37;16.90;;;12.82;;
25419;SDS011;13354;48.174;11.566;2024-03-22T01:58:03;18.58;;;12.52;;
25419;SDS011;13354;48.174;11.566;2024-03-22T02:00:29;17.45;;;13.40;;
25419;SDS011;13354;48.174;11.566;2024-03-22T02:02:55;17.63;;;13.25;;
25419;SDS011;13354;48.174;11.566;2024-03-22T02:05:21;16.60;;;12.75;;
25419;SDS011;13354;48.174;11.566;2024-03-22T02:07:46;17.35;;;12.80;;
25419;SDS011;13354;48.174;11.566;2024-03-22T02:10:13;17.17;;;12.50;;
25419;SDS011;13354;48.174;11.566;2024-03-22T02:12:39;14.55;;;11.77;;
25419;SDS011;13354;48.174;11.566;2024-03-22T02:15:05;18.08;;;12.10;;
25419;SDS011;13354;48.174;11.566;2024-03-22T02:17:32;16.88;;;12.48;;
25419;SDS011;13354;48.174;11.566;2024-03-22T02:19:58;16.00;;;13.00;;
25419;SDS011;13354;48.174;11.566;2024-03-22T02:22:24;18.02;;;13.23;;
25419;SDS011;13354;48.174;11.566;2024-03-22T02:24:49;18.92;;;13.68;;
25419;SDS011;13354;48.174;11.566;2024-03-22T02:27:15;19.27;;;13.25;;
25419;SDS011;13354;48.174;11.566;2024-03-22T02:29:40;15.70;;;12.52;;
25419;SDS011;13354;48.174;11.566;2024-03-22T02:32:06;17.38;;;13.35;;
25419;SDS011;13354;48.174;11.566;2024-03-22T02:34:31;15.20;;;12.85;;
25419;SDS011;13354;48.174;11.566;2024-03-22T02:36:57;17.20;;;13.15;;
25419;SDS011;13354;48.174;11.566;2024-03-22T02:39:22;17.73;;;12.82;;
25419;SDS011;13354;48.174;11.566;2024-03-22T02:41:48;18.65;;;13.70;;
25419;SDS011;13354;48.174;11.566;2024-03-22T02:44:13;16.65;;;13.65;;
25419;SDS011;13354;48.174;11.566;2024-03-22T02:46:39;17.02;;;12.88;;
25419;SDS011;13354;48.174;11.566;2024-03-22T02:49:04;17.85;;;13.30;;
25419;SDS011;13354;48.174;11.566;2024-03-22T02:51:29;19.35;;;14.00;;
25419;SDS011;13354;48.174;11.566;2024-03-22T02:53:55;19.02;;;13.70;;
25419;SDS011;13354;48.174;11.566;2024-03-22T02:56:20;16.88;;;13.50;;
25419;SDS011;13354;48.174;11.566;2024-03-22T02:58:46;17.00;;;13.90;;
25419;SDS011;13354;48.174;11.566;2024-03-22T03:01:11;19.40;;;14.52;;
25419;SDS011;13354;48.174;11.566;2024-03-22T03:03:37;18.73;;;14.75;;
25419;SDS011;13354;48.174;11.566;2024-03-22T03:06:02;21.65;;;14.48;;
25419;SDS011;13354;48.174;11.566;2024-03-22T03:08:27;20.40;;;14.52;;
25419;SDS011;13354;48.174;11.566;2024-03-22T03:10:53;18.60;;;14.68;;
25419;SDS011;13354;48.174;11.566;2024-03-22T03:13:18;19.02;;;15.32;;
25419;SDS011;13354;48.174;11.566;2024-03-22T03:15:44;21.67;;;15.00;;
25419;SDS011;13354;48.174;11.566;2024-03-22T03:18:09;19.15;;;14.50;;
25419;SDS011;13354;48.174;11.566;2024-03-22T03:20:34;17.33;;;13.57;;
25419;SDS011;13354;48.174;11.566;2024-03-22T03:23:00;23.98;;;15.18;;
25419;SDS011;13354;48.174;11.566;2024-03-22T03:25:26;21.40;;;14.88;;
25419;SDS011;13354;48.174;11.566;2024-03-22T03:27:52;18.58;;;14.68;;
25419;SDS011;13354;48.174;11.566;2024-03-22T03:30:17;18.17;;;14.43;;
25419;SDS011;13354;48.174;11.566;2024-03-22T03:32:43;20.70;;;15.52;;
25419;SDS011;13354;48.174;11.566;2024-03-22T03:35:08;21.10;;;15.18;;
25419;SDS011;13354;48.174;11.566;2024-03-22T03:37:34;22.52;;;14.55;;
25419;SDS011;13354;48.174;11.566;2024-03-22T03:39:59;20.05;;;15.07;;
25419;SDS011;13354;48.174;11.566;2024-03-22T03:42:25;18.02;;;14.05;;
25419;SDS011;13354;48.174;11.566;2024-03-22T03:44:50;18.85;;;14.02;;
25419;SDS011;13354;48.174;11.566;2024-03-22T03:47:16;21.67;;;14.85;;
25419;SDS011;13354;48.174;11.566;2024-03-22T03:49:41;18.98;;;14.32;;
25419;SDS011;13354;48.174;11.566;2024-03-22T03:52:07;20.63;;;14.45;;
25419;SDS011;13354;48.174;11.566;2024-03-22T03:54:32;18.20;;;14.35;;
25419;SDS011;13354;48.174;11.566;2024-03-22T03:56:57;17.20;;;13.15;;
25419;SDS011;13354;48.174;11.566;2024-03-22T03:59:23;17.63;;;13.73;;
25419;SDS011;13354;48.174;11.566;2024-03-22T04:01:48;18.45;;;13.98;;
25419;SDS011;13354;48.174;11.566;2024-03-22T04:04:14;18.58;;;14.00;;
25419;SDS011;13354;48.174;11.566;2024-03-22T04:06:39;18.98;;;14.27;;
25419;SDS011;13354;48.174;11.566;2024-03-22T04:09:05;18.35;;;13.65;;
25419;SDS011;13354;48.174;11.566;2024-03-22T04:11:30;16.70;;;13.48;;
25419;SDS011;13354;48.174;11.566;2024-03-22T04:13:56;17.75;;;13.98;;
25419;SDS011;13354;48.174;11.566;2024-03-22T04:16:21;17.92;;;13.52;;
25419;SDS011;13354;48.174;11.566;2024-03-22T04:18:47;17.00;;;13.23;;
25419;SDS011;13354;48.174;11.566;2024-03-22T04:21:12;17.80;;;13.80;;
25419;SDS011;13354;48.174;11.566;2024-03-22T04:23:38;17.98;;;12.75;;
25419;SDS011;13354;48.174;11.566;2024-03-22T04:26:03;16.60;;;13.30;;
25419;SDS011;13354;48.174;11.566;2024-03-22T04:28:29;19.33;;;12.82;;
25419;SDS011;13354;48.174;11.566;2024-03-22T04:33:23;19.55;;;14.38;;
25419;SDS011;13354;48.174;11.566;2024-03-22T04:35:49;19.50;;;14.25;;
25419;SDS011;13354;48.174;11.566;2024-03-22T04:38:14;18.63;;;13.13;;
25419;SDS011;13354;48.174;11.566;2024-03-22T04:40:40;19.60;;;14.05;;
25419;SDS011;13354;48.174;11.566;2024-03-22T04:43:06;20.50;;;14.75;;
25419;SDS011;13354;48.174;11.566;2024-03-22T04:45:31;18.92;;;14.82;;
25419;SDS011;13354;48.174;11.566;2024-03-22T04:47:57;22.73;;;14.52;;
25419;SDS011;13354;48.174;11.566;2024-03-22T04:50:22;19.88;;;14.88;;
25419;SDS011;13354;48.174;11.566;2024-03-22T04:52:47;19.90;;;15.07;;
25419;SDS011;13354;48.174;11.566;2024-03-22T04:55:13;19.13;;;14.60;;
25419;SDS011;13354;48.174;11.566;2024-03-22T04:57:38;19.13;;;14.77;;
25419;SDS011;13354;48.174;11.566;2024-03-22T05:00:04;20.52;;;14.90;;
25419;SDS011;13354;48.174;11.566;2024-03-22T05:02:32;19.17;;;15.35;;
25419;SDS011;13354;48.174;11.566;2024-03-22T05:04:57;20.08;;;14.98;;
25419;SDS011;13354;48.174;11.566;2024-03-22T05:07:23;18.45;;;14.32;;
25419;SDS011;13354;48.174;11.566;2024-03-22T05:09:48;19.17;;;14.70;;
25419;SDS011;13354;48.174;11.566;2024-03-22T05:12:14;18.48;;;14.10;;
25419;SDS011;13354;48.174;11.566;2024-03-22T05:14:39;17.10;;;14.07;;
25419;SDS011;13354;48.174;11.566;2024-03-22T05:17:05;19.20;;;14.85;;
25419;SDS011;13354;48.174;11.566;2024-03-22T05:19:30;21.42;;;14.30;;
25419;SDS011;13354;48.174;11.566;2024-03-22T05:21:56;19.48;;;13.35;;
25419;SDS011;13354;48.174;11.566;2024-03-22T05:24:21;20.70;;;14.15;;
25419;SDS011;13354;48.174;11.566;2024-03-22T05:26:47;21.40;;;13.38;;
25419;SDS011;13354;48.174;11.566;2024-03-22T05:29:12;19.23;;;13.27;;
25419;SDS011;13354;48.174;11.566;2024-03-22T05:31:46;17.45;;;13.00;;
25419;SDS011;13354;48.174;11.566;2024-03-22T05:36:39;15.88;;;12.02;;
25419;SDS011;13354;48.174;11.566;2024-03-22T05:39:05;18.17;;;13.10;;
25419;SDS011;13354;48.174;11.566;2024-03-22T05:41:31;17.45;;;13.27;;
25419;SDS011;13354;48.174;11.566;2024-03-22T05:43:56;16.67;;;13.18;;
25419;SDS011;13354;48.174;11.566;2024-03-22T05:46:21;15.82;;;12.50;;
25419;SDS011;13354;48.174;11.566;2024-03-22T05:48:47;15.98;;;12.68;;
25419;SDS011;13354;48.174;11.566;2024-03-22T05:51:15;17.02;;;12.10;;
25419;SDS011;13354;48.174;11.566;2024-03-22T05:53:41;16.50;;;12.65;;
25419;SDS011;13354;48.174;11.566;2024-03-22T05:56:07;14.65;;;12.13;;
25419;SDS011;13354;48.174;11.566;2024-03-22T05:58:32;17.17;;;12.45;;
25419;SDS011;13354;48.174;11.566;2024-03-22T06:00:58;16.35;;;12.02;;
25419;SDS011;13354;48.174;11.566;2024-03-22T06:03:23;15.50;;;11.98;;
25419;SDS011;13354;48.174;11.566;2024-03-22T06:05:49;14.73;;;11.98;;
25419;SDS011;13354;48.174;11.566;2024-03-22T06:08:15;16.83;;;11.38;;
25419;SDS011;13354;48.174;11.566;2024-03-22T06:10:45;14.80;;;11.50;;
25419;SDS011;13354;48.174;11.566;2024-03-22T06:13:10;13.70;;;11.38;;
25419;SDS011;13354;48.174;11.566;2024-03-22T06:15:36;17.23;;;11.40;;
25419;SDS011;13354;48.174;11.566;2024-03-22T06:18:01;17.33;;;12.10;;
25419;SDS011;13354;48.174;11.566;2024-03-22T06:20:27;16.27;;;10.63;;
25419;SDS011;13354;48.174;11.566;2024-03-22T06:22:52;13.40;;;10.95;;
25419;SDS011;13354;48.174;11.566;2024-03-22T06:25:17;13.50;;;10.90;;
25419;SDS011;13354;48.174;11.566;2024-03-22T06:27:43;14.65;;;11.77;;
25419;SDS011;13354;48.174;11.566;2024-03-22T06:30:08;15.48;;;11.05;;
25419;SDS011;13354;48.174;11.566;2024-03-22T06:32:34;13.82;;;9.88;;
25419;SDS011;13354;48.174;11.566;2024-03-22T06:35:00;14.82;;;9.63;;
25419;SDS011;13354;48.174;11.566;2024-03-22T06:37:25;14.88;;;9.70;;
25419;SDS011;13354;48.174;11.566;2024-03-22T06:39:50;14.25;;;8.80;;
25419;SDS011;13354;48.174;11.566;2024-03-22T06:42:16;11.68;;;8.55;;
25419;SDS011;13354;48.174;11.566;2024-03-22T06:44:41;12.30;;;10.30;;
25419;SDS011;13354;48.174;11.566;2024-03-22T06:47:07;12.13;;;9.30;;
25419;SDS011;13354;48.174;11.566;2024-03-22T06:49:32;13.95;;;8.82;;
25419;SDS011;13354;48.174;11.566;2024-03-22T06:51:58;10.75;;;8.93;;
25419;SDS011;13354;48.174;11.566;2024-03-22T06:54:25;11.82;;;8.90;;
25419;SDS011;13354;48.174;11.566;2024-03-22T06:56:51;10.80;;;8.88;;
25419;SDS011;13354;48.174;11.566;2024-03-22T06:59:17;13.77;;;9.57;;
25419;SDS011;13354;48.174;11.566;2024-03-22T07:01:42;14.57;;;9.65;;
25419;SDS011;13354;48.174;11.566;2024-03-22T07:04:07;11.63;;;8.80;;
25419;SDS011;13354;48.174;11.566;2024-03-22T07:06:33;12.43;;;9.85;;
25419;SDS011;13354;48.174;11.566;2024-03-22T07:08:59;16.25;;;11.80;;
25419;SDS011;13354;48.174;11.566;2024-03-22T07:11:24;13.88;;;9.90;;
25419;SDS011;13354;48.174;11.566;2024-03-22T07:13:50;13.77;;;9.35;;
25419;SDS011;13354;48.174;11.566;2024-03-22T07:16:15;10.30;;;9.05;;
25419;SDS011;13354;48.174;11.566;2024-03-22T07:18:41;12.95;;;9.20;;
25419;SDS011;13354;48.174;11.566;2024-03-22T07:21:07;13.18;;;9.48;;
25419;SDS011;13354;48.174;11.566;2024-03-22T07:23:32;11.43;;;9.00;;
25419;SDS011;13354;48.174;11.566;2024-03-22T07:25:58;12.23;;;9.52;;
25419;SDS011;13354;48.174;11.566;2024-03-22T07:28:24;13.50;;;8.85;;
25419;SDS011;13354;48.174;11.566;2024-03-22T07:30:50;11.73;;;8.85;;
25419;SDS011;13354;48.174;11.566;2024-03-22T07:33:15;11.80;;;8.82;;
25419;SDS011;13354;48.174;11.566;2024-03-22T07:35:42;12.75;;;9.38;;
25419;SDS011;13354;48.174;11.566;2024-03-22T07:38:09;10.43;;;8.45;;
25419;SDS011;13354;48.174;11.566;2024-03-22T07:40:35;14.63;;;8.98;;
25419;SDS011;13354;48.174;11.566;2024-03-22T07:43:00;11.70;;;8.95;;
25419;SDS011;13354;48.174;11.566;2024-03-22T07:45:31;11.57;;;8.65;;
25419;SDS011;13354;48.174;11.566;2024-03-22T07:47:59;11.60;;;8.32;;
25419;SDS011;13354;48.174;11.566;2024-03-22T07:50:25;11.00;;;8.65;;
25419;SDS011;13354;48.174;11.566;2024-03-22T07:52:50;11.25;;;8.45;;
25419;SDS011;13354;48.174;11.566;2024-03-22T07:55:16;13.60;;;9.10;;
25419;SDS011;13354;48.174;11.566;2024-03-22T07:57:42;13.77;;;10.30;;
25419;SDS011;13354;48.174;11.566;2024-03-22T08:00:07;10.15;;;7.72;;
25419;SDS011;13354;48.174;11.566;2024-03-22T08:02:33;9.98;;;7.25;;
25419;SDS011;13354;48.174;11.566;2024-03-22T08:04:59;9.55;;;8.13;;
25419;SDS011;13354;48.174;11.566;2024-03-22T08:07:24;12.70;;;7.75;;
25419;SDS011;13354;48.174;11.566;2024-03-22T08:09:49;11.43;;;8.00;;
25419;SDS011;13354;48.174;11.566;2024-03-22T08:12:15;16.48;;;8.77;;
25419;SDS011;13354;48.174;11.566;2024-03-22T08:14:41;10.38;;;8.35;;
25419;SDS011;13354;48.174;11.566;2024-03-22T08:17:07;12.52;;;8.20;;
25419;SDS011;13354;48.174;11.566;2024-03-22T08:19:34;8.88;;;7.03;;
25419;SDS011;13354;48.174;11.566;2024-03-22T08:22:00;9.85;;;7.80;;
25419;SDS011;13354;48.174;11.566;2024-03-22T08:24:25;10.00;;;8.15;;
25419;SDS011;13354;48.174;11.566;2024-03-22T08:26:51;10.68;;;7.68;;
25419;SDS011;13354;48.174;11.566;2024-03-22T08:29:16;9.10;;;7.63;;
25419;SDS011;13354;48.174;11.566;2024-03-22T08:31:41;12.13;;;7.38;;
25419;SDS011;13354;48.174;11.566;2024-03-22T08:34:07;8.73;;;6.97;;
25419;SDS011;13354;48.174;11.566;2024-03-22T08:36:33;9.52;;;7.38;;
25419;SDS011;13354;48.174;11.566;2024-03-22T08:38:59;11.93;;;7.70;;
25419;SDS011;13354;48.174;11.566;2024-03-22T08:41:24;8.55;;;6.85;;
25419;SDS011;13354;48.174;11.566;2024-03-22T08:43:50;9.07;;;6.95;;
25419;SDS011;13354;48.174;11.566;2024-03-22T08:46:15;8.85;;;6.15;;
25419;SDS011;13354;48.174;11.566;2024-03-22T08:48:41;8.85;;;6.10;;
25419;SDS011;13354;48.174;11.566;2024-03-22T08:51:06;9.05;;;6.40;;
25419;SDS011;13354;48.174;11.566;2024-03-22T08:53:32;8.02;;;5.75;;
25419;SDS011;13354;48.174;11.566;2024-03-22T08:55:57;9.80;;;7.80;;
25419;SDS011;13354;48.174;11.566;2024-03-22T08:58:23;10.57;;;7.68;;
25419;SDS011;13354;48.174;11.566;2024-03-22T09:00:49;8.23;;;6.28;;
25419;SDS011;13354;48.174;11.566;2024-03-22T09:03:14;10.38;;;6.85;;
25419;SDS011;13354;48.174;11.566;2024-03-22T09:05:40;10.93;;;6.35;;
25419;SDS011;13354;48.174;11.566;2024-03-22T09:08:06;7.68;;;5.38;;
25419;SDS011;13354;48.174;11.566;2024-03-22T09:10:32;9.75;;;6.05;;
25419;SDS011;13354;48.174;11.566;2024-03-22T09:12:57;8.60;;;6.20;;
25419;SDS011;13354;48.174;11.566;2024-03-22T09:15:22;7.95;;;5.55;;
25419;SDS011;13354;48.174;11.566;2024-03-22T09:17:49;8.02;;;5.60;;
25419;SDS011;13354;48.174;11.566;2024-03-22T09:20:15;10.23;;;5.97;;
25419;SDS011;13354;48.174;11.566;2024-03-22T09:22:40;7.53;;;5.70;;
25419;SDS011;13354;48.174;11.566;2024-03-22T09:25:06;7.47;;;5.63;;
25419;SDS011;13354;48.174;11.566;2024-03-22T09:27:32;9.55;;;6.35;;
25419;SDS011;13354;48.174;11.566;2024-03-22T09:29:57;8.00;;;5.43;;
25419;SDS011;13354;48.174;11.566;2024-03-22T09:32:23;8.25;;;5.20;;
25419;SDS011;13354;48.174;11.566;2024-03-22T09:34:49;8.40;;;4.55;;
25419;SDS011;13354;48.174;11.566;2024-03-22T09:37:17;6.82;;;5.22;;
25419;SDS011;13354;48.174;11.566;2024-03-22T09:39:42;7.53;;;4.70;;
25419;SDS011;13354;48.174;11.566;2024-03-22T09:42:09;7.75;;;4.78;;
25419;SDS011;13354;48.174;11.566;2024-03-22T09:44:40;9.07;;;5.43;;
25419;SDS011;13354;48.174;11.566;2024-03-22T09:47:14;9.02;;;5.20;;
25419;SDS011;13354;48.174;11.566;2024-03-22T09:49:41;6.57;;;4.55;;
25419;SDS011;13354;48.174;11.566;2024-03-22T09:52:11;8.07;;;6.00;;
25419;SDS011;13354;48.174;11.566;2024-03-22T09:54:43;7.70;;;4.88;;
25419;SDS011;13354;48.174;11.566;2024-03-22T09:57:10;5.80;;;4.15;;
25419;SDS011;13354;48.174;11.566;2024-03-22T09:59:40;5.90;;;4.43;;
25419;SDS011;13354;48.174;11.566;2024-03-22T10:02:06;8.10;;;4.57;;
25419;SDS011;13354;48.174;11.566;2024-03-22T10:04:35;8.18;;;4.05;;
25419;SDS011;13354;48.174;11.566;2024-03-22T10:07:02;9.68;;;4.50;;
25419;SDS011;13354;48.174;11.566;2024-03-22T10:09:32;5.50;;;4.20;;
25419;SDS011;13354;48.174;11.566;2024-03-22T10:11:58;7.13;;;4.75;;
25419;SDS011;13354;48.174;11.566;2024-03-22T10:14:23;9.43;;;7.50;;
25419;SDS011;13354;48.174;11.566;2024-03-22T10:16:52;5.57;;;3.80;;
25419;SDS011;13354;48.174;11.566;2024-03-22T10:19:19;6.55;;;4.15;;
25419;SDS011;13354;48.174;11.566;2024-03-22T10:21:46;5.30;;;4.18;;
25419;SDS011;13354;48.174;11.566;2024-03-22T10:24:12;8.13;;;4.20;;
25419;SDS011;13354;48.174;11.566;2024-03-22T10:26:38;7.15;;;4.40;;
25419;SDS011;13354;48.174;11.566;2024-03-22T10:29:07;9.52;;;4.22;;
25419;SDS011;13354;48.174;11.566;2024-03-22T10:31:34;5.82;;;4.18;;
25419;SDS011;13354;48.174;11.566;2024-03-22T10:34:02;6.35;;;4.38;;
25419;SDS011;13354;48.174;11.566;2024-03-22T10:36:29;7.72;;;4.55;;
25419;SDS011;13354;48.174;11.566;2024-03-22T10:38:56;5.55;;;4.25;;
25419;SDS011;13354;48.174;11.566;2024-03-22T10:41:23;8.70;;;4.45;;
25419;SDS011;13354;48.174;11.566;2024-03-22T10:43:50;6.43;;;3.80;;
25419;SDS011;13354;48.174;11.566;2024-03-22T10:46:15;5.32;;;3.70;;
25419;SDS011;13354;48.174;11.566;2024-03-22T10:48:44;6.60;;;3.75;;
25419;SDS011;13354;48.174;11.566;2024-03-22T10:51:10;6.07;;;3.92;;
25419;SDS011;13354;48.174;11.566;2024-03-22T10:53:38;5.80;;;3.47;;
25419;SDS011;13354;48.174;11.566;2024-03-22T10:56:04;8.20;;;4.10;;
25419;SDS011;13354;48.174;11.566;2024-03-22T10:58:31;6.90;;;4.03;;
25419;SDS011;13354;48.174;11.566;2024-03-22T11:00:57;4.93;;;3.65;;
25419;SDS011;13354;48.174;11.566;2024-03-22T11:03:24;5.13;;;3.47;;
25419;SDS011;13354;48.174;11.566;2024-03-22T11:05:54;5.18;;;3.35;;
25419;SDS011;13354;48.174;11.566;2024-03-22T11:10:51;6.05;;;3.60;;
25419;SDS011;13354;48.174;11.566;2024-03-22T11:13:17;5.57;;;3.58;;
25419;SDS011;13354;48.174;11.566;2024-03-22T11:15:43;6.38;;;3.55;;
25419;SDS011;13354;48.174;11.566;2024-03-22T11:18:08;7.03;;;3.63;;
25419;SDS011;13354;48.174;11.566;2024-03-22T11:20:37;7.18;;;4.18;;
25419;SDS011;13354;48.174;11.566;2024-03-22T11:23:06;8.30;;;3.97;;
25419;SDS011;13354;48.174;11.566;2024-03-22T11:25:32;5.25;;;3.72;;
25419;SDS011;13354;48.174;11.566;2024-03-22T11:27:58;6.20;;;3.28;;
25419;SDS011;13354;48.174;11.566;2024-03-22T11:30:26;6.65;;;3.80;;
25419;SDS011;13354;48.174;11.566;2024-03-22T11:32:53;6.00;;;4.05;;
25419;SDS011;13354;48.174;11.566;2024-03-22T11:35:19;4.80;;;3.30;;
25419;SDS011;13354;48.174;11.566;2024-03-22T11:37:44;5.75;;;3.90;;
25419;SDS011;13354;48.174;11.566;2024-03-22T11:40:10;5.13;;;3.55;;
25419;SDS011;13354;48.174;11.566;2024-03-22T11:42:41;4.57;;;3.05;;
25419;SDS011;13354;48.174;11.566;2024-03-22T11:45:09;5.80;;;4.05;;
25419;SDS011;13354;48.174;11.566;2024-03-22T11:47:36;8.15;;;3.70;;
25419;SDS011;13354;48.174;11.566;2024-03-22T11:50:02;5.47;;;3.90;;
25419;SDS011;13354;48.174;11.566;2024-03-22T11:52:28;7.53;;;3.58;;
25419;SDS011;13354;48.174;11.566;2024-03-22T11:54:54;5.22;;;3.55;;
25419;SDS011;13354;48.174;11.566;2024-03-22T11:57:20;4.18;;;3.78;;
25419;SDS011;13354;48.174;11.566;2024-03-22T11:59:46;6.85;;;3.55;;
25419;SDS011;13354;48.174;11.566;2024-03-22T12:02:11;7.85;;;3.78;;
25419;SDS011;13354;48.174;11.566;2024-03-22T12:04:47;4.80;;;3.65;;
25419;SDS011;13354;48.174;11.566;2024-03-22T12:07:13;5.72;;;3.80;;
25419;SDS011;13354;48.174;11.566;2024-03-22T12:09:40;6.90;;;3.90;;
25419;SDS011;13354;48.174;11.566;2024-03-22T12:12:07;5.40;;;3.70;;
25419;SDS011;13354;48.174;11.566;2024-03-22T12:14:34;3.95;;;3.50;;
25419;SDS011;13354;48.174;11.566;2024-03-22T12:17:00;6.05;;;3.30;;
25419;SDS011;13354;48.174;11.566;2024-03-22T12:19:26;7.38;;;4.03;;
25419;SDS011;13354;48.174;11.566;2024-03-22T12:21:52;5.28;;;3.92;;
25419;SDS011;13354;48.174;11.566;2024-03-22T12:24:17;4.95;;;3.72;;
25419;SDS011;13354;48.174;11.566;2024-03-22T12:26:43;6.03;;;4.30;;
25419;SDS011;13354;48.174;11.566;2024-03-22T12:29:08;5.80;;;4.18;;
25419;SDS011;13354;48.174;11.566;2024-03-22T12:31:37;5.55;;;3.38;;
25419;SDS011;13354;48.174;11.566;2024-03-22T12:34:02;5.43;;;3.78;;
25419;SDS011;13354;48.174;11.566;2024-03-22T12:36:28;4.70;;;3.65;;
25419;SDS011;13354;48.174;11.566;2024-03-22T12:38:53;10.40;;;7.75;;
25419;SDS011;13354;48.174;11.566;2024-03-22T12:41:19;13.25;;;10.00;;
25419;SDS011;13354;48.174;11.566;2024-03-22T12:43:44;6.68;;;4.20;;
25419;SDS011;13354;48.174;11.566;2024-03-22T12:46:10;5.20;;;4.03;;
25419;SDS011;13354;48.174;11.566;2024-03-22T12:48:36;4.55;;;3.50;;
25419;SDS011;13354;48.174;11.566;2024-03-22T12:51:02;4.57;;;3.40;;
25419;SDS011;13354;48.174;11.566;2024-03-22T12:53:27;5.90;;;3.85;;
25419;SDS011;13354;48.174;11.566;2024-03-22T12:55:53;8.20;;;4.53;;
25419;SDS011;13354;48.174;11.566;2024-03-22T12:58:18;7.35;;;3.70;;
25419;SDS011;13354;48.174;11.566;2024-03-22T13:00:43;6.15;;;3.28;;
25419;SDS011;13354;48.174;11.566;2024-03-22T13:03:09;4.38;;;3.30;;
25419;SDS011;13354;48.174;11.566;2024-03-22T13:05:36;8.48;;;3.08;;
25419;SDS011;13354;48.174;11.566;2024-03-22T13:08:02;6.80;;;3.60;;
25419;SDS011;13354;48.174;11.566;2024-03-22T13:10:28;4.13;;;3.20;;
25419;SDS011;13354;48.174;11.566;2024-03-22T13:12:53;3.38;;;2.80;;
25419;SDS011;13354;48.174;11.566;2024-03-22T13:15:19;6.40;;;3.67;;
25419;SDS011;13354;48.174;11.566;2024-03-22T13:17:44;5.45;;;3.50;;
25419;SDS011;13354;48.174;11.566;2024-03-22T13:20:10;4.75;;;3.20;;
25419;SDS011;13354;48.174;11.566;2024-03-22T13:22:37;6.57;;;3.20;;
25419;SDS011;13354;48.174;11.566;2024-03-22T13:25:04;3.53;;;2.70;;
25419;SDS011;13354;48.174;11.566;2024-03-22T13:27:32;6.15;;;3.00;;
25419;SDS011;13354;48.174;11.566;2024-03-22T13:29:59;4.72;;;2.53;;
25419;SDS011;13354;48.174;11.566;2024-03-22T13:32:25;5.25;;;2.88;;
25419;SDS011;13354;48.174;11.566;2024-03-22T13:34:50;3.65;;;2.72;;
25419;SDS011;13354;48.174;11.566;2024-03-22T13:37:16;4.53;;;2.72;;
25419;SDS011;13354;48.174;11.566;2024-03-22T13:39:41;3.55;;;2.40;;
25419;SDS011;13354;48.174;11.566;2024-03-22T13:42:06;4.95;;;2.78;;
25419;SDS011;13354;48.174;11.566;2024-03-22T13:44:32;4.35;;;3.25;;
25419;SDS011;13354;48.174;11.566;2024-03-22T13:46:58;5.03;;;2.42;;
25419;SDS011;13354;48.174;11.566;2024-03-22T13:49:23;4.38;;;2.17;;
25419;SDS011;13354;48.174;11.566;2024-03-22T13:51:49;5.60;;;2.78;;
25419;SDS011;13354;48.174;11.566;2024-03-22T13:54:15;6.45;;;2.83;;
25419;SDS011;13354;48.174;11.566;2024-03-22T13:56:40;3.20;;;2.20;;
25419;SDS011;13354;48.174;11.566;2024-03-22T13:59:06;6.57;;;2.83;;
25419;SDS011;13354;48.174;11.566;2024-03-22T14:01:33;6.10;;;2.72;;
25419;SDS011;13354;48.174;11.566;2024-03-22T14:03:59;5.15;;;2.50;;
25419;SDS011;13354;48.174;11.566;2024-03-22T14:06:24;4.00;;;2.60;;
25419;SDS011;13354;48.174;11.566;2024-03-22T14:08:50;4.88;;;2.60;;
25419;SDS011;13354;48.174;11.566;2024-03-22T14:11:19;3.67;;;2.80;;
25419;SDS011;13354;48.174;11.566;2024-03-22T14:13:44;4.18;;;2.58;;
25419;SDS011;13354;48.174;11.566;2024-03-22T14:16:10;3.92;;;2.20;;
25419;SDS011;13354;48.174;11.566;2024-03-22T14:18:36;4.15;;;2.63;;
25419;SDS011;13354;48.174;11.566;2024-03-22T14:21:02;3.72;;;2.75;;